Terminal Aerodrome Forecast
Issued by NWS Melbourne, FL

Home | Current Version | Previous Version | Text Only | Print | Product List | Glossary On
Versions: 1 2 3 4 5 6 7 8 9 10 11 12 13 14 15 16 17 18 19 20 21 22 23 24
000
FTUS42 KMLB 030437 AAB
TAFDAB
TAF AMD
KDAB 030437Z 0305/0324 08003KT 3/4SM BR BKN003
      TEMPO 0305/0308 1/4SM FG OVC002
     FM030800 00000KT 1/2SM FG OVC002
      TEMPO 0308/0312 1/4SM FG VV002
     FM031500 05004KT P6SM SCT005
     FM031700 09008KT P6SM SCT030=

USA.gov is the U.S. government's official web portal to all federal, state and local government web resources and services.